sensor_id;sensor_type;location;lat;lon;timestamp;P1;durP1;ratioP1;P2;durP2;ratioP2
68608;SDS011;55581;46.718;7.690;2022-09-17T00:00:15;6.22;;;1.38;;
68608;SDS011;55581;46.718;7.690;2022-09-17T00:02:41;6.72;;;1.45;;
68608;SDS011;55581;46.718;7.690;2022-09-17T00:05:08;6.05;;;1.40;;
68608;SDS011;55581;46.718;7.690;2022-09-17T00:07:34;4.67;;;1.60;;
68608;SDS011;55581;46.718;7.690;2022-09-17T00:10:00;6.70;;;1.40;;
68608;SDS011;55581;46.718;7.690;2022-09-17T00:12:25;6.37;;;1.60;;
68608;SDS011;55581;46.718;7.690;2022-09-17T00:14:51;4.00;;;1.50;;
68608;SDS011;55581;46.718;7.690;2022-09-17T00:17:16;5.18;;;1.83;;
68608;SDS011;55581;46.718;7.690;2022-09-17T00:19:41;5.07;;;1.30;;
68608;SDS011;55581;46.718;7.690;2022-09-17T00:22:07;4.80;;;1.60;;
68608;SDS011;55581;46.718;7.690;2022-09-17T00:24:35;5.83;;;1.37;;
68608;SDS011;55581;46.718;7.690;2022-09-17T00:27:00;4.85;;;1.30;;
68608;SDS011;55581;46.718;7.690;2022-09-17T00:29:25;3.70;;;1.03;;
68608;SDS011;55581;46.718;7.690;2022-09-17T00:31:51;4.55;;;1.73;;
68608;SDS011;55581;46.718;7.690;2022-09-17T00:34:19;4.87;;;1.20;;
68608;SDS011;55581;46.718;7.690;2022-09-17T00:36:46;3.60;;;1.38;;
68608;SDS011;55581;46.718;7.690;2022-09-17T00:39:12;4.07;;;1.00;;
68608;SDS011;55581;46.718;7.690;2022-09-17T00:41:39;4.90;;;1.60;;
68608;SDS011;55581;46.718;7.690;2022-09-17T00:47:07;4.07;;;1.40;;
68608;SDS011;55581;46.718;7.690;2022-09-17T00:49:37;3.70;;;1.30;;
68608;SDS011;55581;46.718;7.690;2022-09-17T00:52:16;5.63;;;1.38;;
68608;SDS011;55581;46.718;7.690;2022-09-17T00:54:53;3.27;;;1.00;;
68608;SDS011;55581;46.718;7.690;2022-09-17T00:57:24;6.22;;;1.13;;
68608;SDS011;55581;46.718;7.690;2022-09-17T00:59:53;4.00;;;1.25;;
68608;SDS011;55581;46.718;7.690;2022-09-17T01:02:21;5.50;;;1.30;;
68608;SDS011;55581;46.718;7.690;2022-09-17T01:04:47;4.35;;;1.40;;
68608;SDS011;55581;46.718;7.690;2022-09-17T01:10:47;6.60;;;1.30;;
68608;SDS011;55581;46.718;7.690;2022-09-17T01:15:54;5.38;;;1.17;;
68608;SDS011;55581;46.718;7.690;2022-09-17T01:19:03;3.42;;;1.17;;
68608;SDS011;55581;46.718;7.690;2022-09-17T01:21:42;3.53;;;1.27;;
68608;SDS011;55581;46.718;7.690;2022-09-17T01:24:38;3.42;;;1.48;;
68608;SDS011;55581;46.718;7.690;2022-09-17T01:32:57;4.53;;;1.67;;
68608;SDS011;55581;46.718;7.690;2022-09-17T01:41:04;4.73;;;1.73;;
68608;SDS011;55581;46.718;7.690;2022-09-17T01:43:47;4.25;;;1.67;;
68608;SDS011;55581;46.718;7.690;2022-09-17T01:46:26;5.60;;;1.58;;
68608;SDS011;55581;46.718;7.690;2022-09-17T01:49:04;7.68;;;1.70;;
68608;SDS011;55581;46.718;7.690;2022-09-17T01:51:34;4.45;;;1.52;;
68608;SDS011;55581;46.718;7.690;2022-09-17T01:56:42;4.57;;;1.40;;
68608;SDS011;55581;46.718;7.690;2022-09-17T02:01:41;4.18;;;1.50;;
68608;SDS011;55581;46.718;7.690;2022-09-17T02:04:12;6.90;;;1.70;;
68608;SDS011;55581;46.718;7.690;2022-09-17T02:06:42;4.73;;;1.73;;
68608;SDS011;55581;46.718;7.690;2022-09-17T02:09:32;4.03;;;1.58;;
68608;SDS011;55581;46.718;7.690;2022-09-17T02:12:04;5.53;;;1.55;;
68608;SDS011;55581;46.718;7.690;2022-09-17T02:14:37;5.32;;;1.70;;
68608;SDS011;55581;46.718;7.690;2022-09-17T02:17:13;4.97;;;1.80;;
68608;SDS011;55581;46.718;7.690;2022-09-17T02:19:44;4.47;;;1.60;;
68608;SDS011;55581;46.718;7.690;2022-09-17T02:28:14;7.57;;;2.27;;
68608;SDS011;55581;46.718;7.690;2022-09-17T02:30:47;6.35;;;1.40;;
68608;SDS011;55581;46.718;7.690;2022-09-17T02:33:13;5.53;;;1.40;;
68608;SDS011;55581;46.718;7.690;2022-09-17T02:35:39;9.45;;;1.65;;
68608;SDS011;55581;46.718;7.690;2022-09-17T02:38:07;5.57;;;1.73;;
68608;SDS011;55581;46.718;7.690;2022-09-17T02:40:38;7.18;;;1.75;;
68608;SDS011;55581;46.718;7.690;2022-09-17T02:43:19;7.27;;;2.17;;
68608;SDS011;55581;46.718;7.690;2022-09-17T02:52:22;5.75;;;1.10;;
68608;SDS011;55581;46.718;7.690;2022-09-17T03:00:18;13.43;;;1.40;;
68608;SDS011;55581;46.718;7.690;2022-09-17T03:03:30;3.30;;;1.00;;
68608;SDS011;55581;46.718;7.690;2022-09-17T03:05:47;5.57;;;1.23;;
68608;SDS011;55581;46.718;7.690;2022-09-17T03:08:15;5.60;;;0.73;;
68608;SDS011;55581;46.718;7.690;2022-09-17T03:10:43;2.87;;;0.90;;
68608;SDS011;55581;46.718;7.690;2022-09-17T03:13:09;5.55;;;1.10;;
68608;SDS011;55581;46.718;7.690;2022-09-17T03:15:35;3.03;;;1.00;;
68608;SDS011;55581;46.718;7.690;2022-09-17T03:18:01;2.92;;;0.90;;
68608;SDS011;55581;46.718;7.690;2022-09-17T03:20:26;8.93;;;1.00;;
68608;SDS011;55581;46.718;7.690;2022-09-17T03:22:51;4.15;;;0.80;;
68608;SDS011;55581;46.718;7.690;2022-09-17T03:25:17;4.80;;;1.40;;
68608;SDS011;55581;46.718;7.690;2022-09-17T03:27:47;3.38;;;0.93;;
68608;SDS011;55581;46.718;7.690;2022-09-17T03:30:13;9.83;;;1.17;;
68608;SDS011;55581;46.718;7.690;2022-09-17T03:32:38;3.20;;;0.98;;
68608;SDS011;55581;46.718;7.690;2022-09-17T03:35:04;2.97;;;0.90;;
68608;SDS011;55581;46.718;7.690;2022-09-17T03:37:29;3.20;;;0.80;;
68608;SDS011;55581;46.718;7.690;2022-09-17T03:39:55;6.38;;;1.10;;
68608;SDS011;55581;46.718;7.690;2022-09-17T03:42:20;5.30;;;1.10;;
68608;SDS011;55581;46.718;7.690;2022-09-17T03:44:45;6.07;;;1.40;;
68608;SDS011;55581;46.718;7.690;2022-09-17T03:47:11;3.80;;;1.30;;
68608;SDS011;55581;46.718;7.690;2022-09-17T03:49:36;6.35;;;0.80;;
68608;SDS011;55581;46.718;7.690;2022-09-17T03:52:02;3.30;;;0.80;;
68608;SDS011;55581;46.718;7.690;2022-09-17T03:54:27;4.20;;;0.90;;
68608;SDS011;55581;46.718;7.690;2022-09-17T03:56:53;10.63;;;1.20;;
68608;SDS011;55581;46.718;7.690;2022-09-17T03:59:18;3.20;;;0.70;;
68608;SDS011;55581;46.718;7.690;2022-09-17T04:01:46;5.22;;;0.95;;
68608;SDS011;55581;46.718;7.690;2022-09-17T04:04:12;2.93;;;1.07;;
68608;SDS011;55581;46.718;7.690;2022-09-17T04:06:40;2.70;;;0.52;;
68608;SDS011;55581;46.718;7.690;2022-09-17T04:09:06;4.28;;;0.98;;
68608;SDS011;55581;46.718;7.690;2022-09-17T04:11:36;3.50;;;0.63;;
68608;SDS011;55581;46.718;7.690;2022-09-17T04:14:01;2.38;;;0.60;;
68608;SDS011;55581;46.718;7.690;2022-09-17T04:16:26;4.53;;;0.60;;
68608;SDS011;55581;46.718;7.690;2022-09-17T04:18:52;5.83;;;0.63;;
68608;SDS011;55581;46.718;7.690;2022-09-17T04:21:17;2.50;;;0.60;;
68608;SDS011;55581;46.718;7.690;2022-09-17T04:23:43;5.32;;;0.90;;
68608;SDS011;55581;46.718;7.690;2022-09-17T04:26:08;3.07;;;0.50;;
68608;SDS011;55581;46.718;7.690;2022-09-17T04:28:34;2.53;;;0.80;;
68608;SDS011;55581;46.718;7.690;2022-09-17T04:31:02;3.22;;;0.70;;
68608;SDS011;55581;46.718;7.690;2022-09-17T04:33:30;3.03;;;0.80;;
68608;SDS011;55581;46.718;7.690;2022-09-17T04:35:55;4.10;;;1.13;;
68608;SDS011;55581;46.718;7.690;2022-09-17T04:38:20;8.93;;;1.90;;
68608;SDS011;55581;46.718;7.690;2022-09-17T04:40:46;5.93;;;1.10;;
68608;SDS011;55581;46.718;7.690;2022-09-17T04:43:14;4.10;;;1.03;;
68608;SDS011;55581;46.718;7.690;2022-09-17T04:45:40;3.37;;;0.60;;
68608;SDS011;55581;46.718;7.690;2022-09-17T04:48:05;7.53;;;1.58;;
68608;SDS011;55581;46.718;7.690;2022-09-17T04:50:30;3.60;;;0.90;;
68608;SDS011;55581;46.718;7.690;2022-09-17T04:52:56;4.03;;;1.17;;
68608;SDS011;55581;46.718;7.690;2022-09-17T04:55:24;4.50;;;1.13;;
68608;SDS011;55581;46.718;7.690;2022-09-17T04:57:51;5.50;;;1.13;;
68608;SDS011;55581;46.718;7.690;2022-09-17T05:00:18;4.97;;;1.20;;
68608;SDS011;55581;46.718;7.690;2022-09-17T05:02:45;3.90;;;1.35;;
68608;SDS011;55581;46.718;7.690;2022-09-17T05:05:12;5.10;;;1.67;;
68608;SDS011;55581;46.718;7.690;2022-09-17T05:07:40;5.13;;;1.40;;
68608;SDS011;55581;46.718;7.690;2022-09-17T05:10:08;5.25;;;1.10;;
68608;SDS011;55581;46.718;7.690;2022-09-17T05:12:35;6.75;;;0.90;;
68608;SDS011;55581;46.718;7.690;2022-09-17T05:15:03;4.05;;;0.90;;
68608;SDS011;55581;46.718;7.690;2022-09-17T05:17:29;5.77;;;1.10;;
68608;SDS011;55581;46.718;7.690;2022-09-17T05:19:56;12.00;;;7.57;;
68608;SDS011;55581;46.718;7.690;2022-09-17T05:22:23;10.45;;;6.28;;
68608;SDS011;55581;46.718;7.690;2022-09-17T05:24:48;7.43;;;3.72;;
68608;SDS011;55581;46.718;7.690;2022-09-17T05:27:13;4.80;;;1.90;;
68608;SDS011;55581;46.718;7.690;2022-09-17T05:29:39;5.13;;;1.50;;
68608;SDS011;55581;46.718;7.690;2022-09-17T05:32:04;3.53;;;1.27;;
68608;SDS011;55581;46.718;7.690;2022-09-17T05:34:33;5.05;;;1.90;;
68608;SDS011;55581;46.718;7.690;2022-09-17T05:36:58;4.65;;;2.00;;
68608;SDS011;55581;46.718;7.690;2022-09-17T05:39:24;3.90;;;1.17;;
68608;SDS011;55581;46.718;7.690;2022-09-17T05:41:52;3.13;;;1.17;;
68608;SDS011;55581;46.718;7.690;2022-09-17T05:44:18;3.73;;;1.00;;
68608;SDS011;55581;46.718;7.690;2022-09-17T05:46:47;4.22;;;1.00;;
68608;SDS011;55581;46.718;7.690;2022-09-17T05:49:13;6.03;;;0.97;;
68608;SDS011;55581;46.718;7.690;2022-09-17T05:51:41;2.72;;;0.80;;
68608;SDS011;55581;46.718;7.690;2022-09-17T05:54:07;3.90;;;1.30;;
68608;SDS011;55581;46.718;7.690;2022-09-17T05:56:33;2.85;;;0.93;;
68608;SDS011;55581;46.718;7.690;2022-09-17T05:58:58;3.13;;;0.90;;
68608;SDS011;55581;46.718;7.690;2022-09-17T06:01:26;5.30;;;1.23;;
68608;SDS011;55581;46.718;7.690;2022-09-17T06:03:52;4.10;;;0.80;;
68608;SDS011;55581;46.718;7.690;2022-09-17T06:06:17;4.27;;;1.10;;
68608;SDS011;55581;46.718;7.690;2022-09-17T06:08:44;4.90;;;0.63;;
68608;SDS011;55581;46.718;7.690;2022-09-17T06:11:10;3.67;;;0.97;;
68608;SDS011;55581;46.718;7.690;2022-09-17T06:13:35;5.10;;;1.10;;
68608;SDS011;55581;46.718;7.690;2022-09-17T06:16:01;8.38;;;0.85;;
68608;SDS011;55581;46.718;7.690;2022-09-17T06:18:29;3.55;;;0.73;;
68608;SDS011;55581;46.718;7.690;2022-09-17T06:20:58;3.47;;;0.77;;
68608;SDS011;55581;46.718;7.690;2022-09-17T06:23:26;3.72;;;0.80;;
68608;SDS011;55581;46.718;7.690;2022-09-17T06:25:55;5.50;;;1.02;;
68608;SDS011;55581;46.718;7.690;2022-09-17T06:28:22;5.03;;;0.82;;
68608;SDS011;55581;46.718;7.690;2022-09-17T06:30:48;3.42;;;0.70;;
68608;SDS011;55581;46.718;7.690;2022-09-17T06:33:16;3.73;;;0.70;;
68608;SDS011;55581;46.718;7.690;2022-09-17T06:35:47;3.95;;;0.93;;
68608;SDS011;55581;46.718;7.690;2022-09-17T06:38:19;4.57;;;0.68;;
68608;SDS011;55581;46.718;7.690;2022-09-17T06:40:49;3.73;;;1.10;;
68608;SDS011;55581;46.718;7.690;2022-09-17T06:43:15;3.47;;;0.73;;
68608;SDS011;55581;46.718;7.690;2022-09-17T06:45:41;4.83;;;1.20;;
68608;SDS011;55581;46.718;7.690;2022-09-17T06:48:07;3.35;;;1.10;;
68608;SDS011;55581;46.718;7.690;2022-09-17T06:50:33;3.45;;;0.82;;
68608;SDS011;55581;46.718;7.690;2022-09-17T06:52:58;4.83;;;1.20;;
68608;SDS011;55581;46.718;7.690;2022-09-17T06:55:28;4.45;;;0.95;;
68608;SDS011;55581;46.718;7.690;2022-09-17T06:57:57;4.97;;;0.87;;
68608;SDS011;55581;46.718;7.690;2022-09-17T07:00:23;2.95;;;0.70;;
68608;SDS011;55581;46.718;7.690;2022-09-17T07:02:56;4.68;;;0.80;;
68608;SDS011;55581;46.718;7.690;2022-09-17T07:05:22;6.80;;;1.08;;
68608;SDS011;55581;46.718;7.690;2022-09-17T07:07:48;3.30;;;1.07;;
68608;SDS011;55581;46.718;7.690;2022-09-17T07:10:14;2.78;;;0.70;;
68608;SDS011;55581;46.718;7.690;2022-09-17T07:12:40;3.00;;;1.00;;
68608;SDS011;55581;46.718;7.690;2022-09-17T07:15:06;4.23;;;0.63;;
68608;SDS011;55581;46.718;7.690;2022-09-17T07:17:32;4.45;;;1.00;;
68608;SDS011;55581;46.718;7.690;2022-09-17T07:19:57;2.77;;;0.40;;
68608;SDS011;55581;46.718;7.690;2022-09-17T07:22:23;2.63;;;0.50;;
68608;SDS011;55581;46.718;7.690;2022-09-17T07:24:49;3.63;;;0.73;;
68608;SDS011;55581;46.718;7.690;2022-09-17T07:27:16;4.25;;;0.77;;
68608;SDS011;55581;46.718;7.690;2022-09-17T07:29:42;2.42;;;0.65;;
68608;SDS011;55581;46.718;7.690;2022-09-17T07:32:12;3.70;;;0.50;;
68608;SDS011;55581;46.718;7.690;2022-09-17T07:34:38;3.08;;;0.40;;
68608;SDS011;55581;46.718;7.690;2022-09-17T07:37:04;2.80;;;0.43;;
68608;SDS011;55581;46.718;7.690;2022-09-17T07:39:32;2.83;;;0.50;;
68608;SDS011;55581;46.718;7.690;2022-09-17T07:41:57;3.93;;;1.00;;
68608;SDS011;55581;46.718;7.690;2022-09-17T07:44:22;3.70;;;1.13;;
68608;SDS011;55581;46.718;7.690;2022-09-17T07:46:48;2.27;;;0.40;;
68608;SDS011;55581;46.718;7.690;2022-09-17T07:49:14;2.17;;;0.33;;
68608;SDS011;55581;46.718;7.690;2022-09-17T07:51:40;1.77;;;0.30;;
68608;SDS011;55581;46.718;7.690;2022-09-17T07:54:05;2.10;;;0.20;;
68608;SDS011;55581;46.718;7.690;2022-09-17T07:56:31;2.90;;;0.33;;
68608;SDS011;55581;46.718;7.690;2022-09-17T07:58:57;1.98;;;0.40;;
68608;SDS011;55581;46.718;7.690;2022-09-17T08:01:22;1.57;;;0.30;;
68608;SDS011;55581;46.718;7.690;2022-09-17T08:03:48;2.63;;;0.50;;
68608;SDS011;55581;46.718;7.690;2022-09-17T08:06:16;1.92;;;0.32;;
68608;SDS011;55581;46.718;7.690;2022-09-17T08:08:48;5.07;;;0.82;;
68608;SDS011;55581;46.718;7.690;2022-09-17T08:11:15;4.10;;;0.50;;
68608;SDS011;55581;46.718;7.690;2022-09-17T08:13:42;2.25;;;0.60;;
68608;SDS011;55581;46.718;7.690;2022-09-17T08:16:13;2.70;;;0.40;;
68608;SDS011;55581;46.718;7.690;2022-09-17T08:18:41;2.45;;;0.40;;
68608;SDS011;55581;46.718;7.690;2022-09-17T08:21:12;1.80;;;0.30;;
68608;SDS011;55581;46.718;7.690;2022-09-17T08:23:42;1.97;;;0.50;;
68608;SDS011;55581;46.718;7.690;2022-09-17T08:26:12;1.48;;;0.20;;
68608;SDS011;55581;46.718;7.690;2022-09-17T08:28:42;1.88;;;0.30;;
68608;SDS011;55581;46.718;7.690;2022-09-17T08:31:14;2.53;;;0.30;;
68608;SDS011;55581;46.718;7.690;2022-09-17T08:33:42;2.85;;;0.38;;
68608;SDS011;55581;46.718;7.690;2022-09-17T08:36:08;2.07;;;0.20;;
68608;SDS011;55581;46.718;7.690;2022-09-17T08:38:40;3.28;;;0.30;;
68608;SDS011;55581;46.718;7.690;2022-09-17T08:43:36;2.10;;;0.23;;
68608;SDS011;55581;46.718;7.690;2022-09-17T08:46:09;3.97;;;0.52;;
68608;SDS011;55581;46.718;7.690;2022-09-17T08:48:36;1.60;;;0.30;;
68608;SDS011;55581;46.718;7.690;2022-09-17T08:54:26;2.10;;;0.20;;
68608;SDS011;55581;46.718;7.690;2022-09-17T09:00:17;2.63;;;0.30;;
68608;SDS011;55581;46.718;7.690;2022-09-17T09:05:41;2.65;;;0.47;;
68608;SDS011;55581;46.718;7.690;2022-09-17T09:08:12;1.67;;;0.20;;
68608;SDS011;55581;46.718;7.690;2022-09-17T09:11:00;4.88;;;0.70;;
68608;SDS011;55581;46.718;7.690;2022-09-17T09:13:32;4.93;;;0.60;;
68608;SDS011;55581;46.718;7.690;2022-09-17T09:16:16;2.92;;;0.43;;
68608;SDS011;55581;46.718;7.690;2022-09-17T09:18:45;4.85;;;0.60;;
68608;SDS011;55581;46.718;7.690;2022-09-17T09:21:26;2.63;;;0.60;;
68608;SDS011;55581;46.718;7.690;2022-09-17T09:24:11;3.55;;;0.35;;
68608;SDS011;55581;46.718;7.690;2022-09-17T09:26:46;3.03;;;0.32;;
68608;SDS011;55581;46.718;7.690;2022-09-17T09:35:27;3.13;;;0.33;;
68608;SDS011;55581;46.718;7.690;2022-09-17T09:38:19;2.83;;;0.40;;
68608;SDS011;55581;46.718;7.690;2022-09-17T09:40:55;0.95;;;0.10;;
68608;SDS011;55581;46.718;7.690;2022-09-17T09:57:09;1.67;;;0.20;;
68608;SDS011;55581;46.718;7.690;2022-09-17T09:59:38;1.98;;;0.32;;
68608;SDS011;55581;46.718;7.690;2022-09-17T10:02:05;1.30;;;0.20;;
68608;SDS011;55581;46.718;7.690;2022-09-17T10:04:31;1.80;;;0.30;;
68608;SDS011;55581;46.718;7.690;2022-09-17T10:07:00;3.60;;;0.20;;
68608;SDS011;55581;46.718;7.690;2022-09-17T10:09:30;1.65;;;0.20;;
68608;SDS011;55581;46.718;7.690;2022-09-17T10:12:00;1.83;;;0.30;;
68608;SDS011;55581;46.718;7.690;2022-09-17T10:14:27;2.55;;;0.20;;
68608;SDS011;55581;46.718;7.690;2022-09-17T10:17:09;1.43;;;0.20;;
68608;SDS011;55581;46.718;7.690;2022-09-17T10:22:31;2.92;;;0.30;;
68608;SDS011;55581;46.718;7.690;2022-09-17T10:25:02;1.77;;;0.20;;
68608;SDS011;55581;46.718;7.690;2022-09-17T10:27:31;2.05;;;0.20;;
68608;SDS011;55581;46.718;7.690;2022-09-17T10:30:03;2.40;;;0.30;;
68608;SDS011;55581;46.718;7.690;2022-09-17T10:32:40;1.45;;;0.20;;
68608;SDS011;55581;46.718;7.690;2022-09-17T10:35:26;1.67;;;0.20;;
68608;SDS011;55581;46.718;7.690;2022-09-17T10:37:52;2.15;;;0.20;;
68608;SDS011;55581;46.718;7.690;2022-09-17T10:47:49;1.05;;;0.15;;
68608;SDS011;55581;46.718;7.690;2022-09-17T10:50:16;2.33;;;0.20;;
68608;SDS011;55581;46.718;7.690;2022-09-17T10:52:50;3.72;;;0.30;;
68608;SDS011;55581;46.718;7.690;2022-09-17T11:00:47;1.67;;;0.22;;
68608;SDS011;55581;46.718;7.690;2022-09-17T11:12:02;2.10;;;0.10;;
68608;SDS011;55581;46.718;7.690;2022-09-17T11:15:02;1.15;;;0.13;;
68608;SDS011;55581;46.718;7.690;2022-09-17T11:25:48;2.40;;;0.30;;
68608;SDS011;55581;46.718;7.690;2022-09-17T11:36:56;3.42;;;0.32;;
68608;SDS011;55581;46.718;7.690;2022-09-17T11:39:43;1.43;;;0.20;;
68608;SDS011;55581;46.718;7.690;2022-09-17T11:42:18;1.77;;;0.28;;
68608;SDS011;55581;46.718;7.690;2022-09-17T11:44:55;1.88;;;0.20;;
68608;SDS011;55581;46.718;7.690;2022-09-17T11:47:31;2.15;;;0.25;;
68608;SDS011;55581;46.718;7.690;2022-09-17T11:52:36;3.40;;;0.30;;
68608;SDS011;55581;46.718;7.690;2022-09-17T11:55:22;2.15;;;0.30;;
68608;SDS011;55581;46.718;7.690;2022-09-17T11:57:50;4.03;;;0.30;;
68608;SDS011;55581;46.718;7.690;2022-09-17T12:00:21;1.30;;;0.20;;
68608;SDS011;55581;46.718;7.690;2022-09-17T12:05:30;2.47;;;0.40;;
68608;SDS011;55581;46.718;7.690;2022-09-17T12:10:54;1.67;;;0.40;;
68608;SDS011;55581;46.718;7.690;2022-09-17T12:16:07;1.63;;;0.20;;
68608;SDS011;55581;46.718;7.690;2022-09-17T12:21:43;1.25;;;0.22;;
68608;SDS011;55581;46.718;7.690;2022-09-17T12:46:18;1.87;;;0.20;;
68608;SDS011;55581;46.718;7.690;2022-09-17T12:59:51;2.07;;;0.40;;
68608;SDS011;55581;46.718;7.690;2022-09-17T13:02:27;2.08;;;0.30;;
68608;SDS011;55581;46.718;7.690;2022-09-17T13:23:27;1.42;;;0.20;;
68608;SDS011;55581;46.718;7.690;2022-09-17T13:25:56;3.10;;;0.20;;
68608;SDS011;55581;46.718;7.690;2022-09-17T13:28:34;1.20;;;0.20;;
68608;SDS011;55581;46.718;7.690;2022-09-17T13:31:04;2.28;;;0.17;;
68608;SDS011;55581;46.718;7.690;2022-09-17T13:33:46;2.30;;;0.30;;
68608;SDS011;55581;46.718;7.690;2022-09-17T13:39:09;1.60;;;0.32;;
68608;SDS011;55581;46.718;7.690;2022-09-17T13:41:58;2.40;;;0.47;;
68608;SDS011;55581;46.718;7.690;2022-09-17T13:44:32;1.30;;;0.20;;
68608;SDS011;55581;46.718;7.690;2022-09-17T13:47:13;2.00;;;0.30;;
68608;SDS011;55581;46.718;7.690;2022-09-17T13:49:56;2.05;;;0.30;;
68608;SDS011;55581;46.718;7.690;2022-09-17T13:52:31;1.45;;;0.30;;
68608;SDS011;55581;46.718;7.690;2022-09-17T13:54:59;2.03;;;0.30;;
68608;SDS011;55581;46.718;7.690;2022-09-17T13:57:26;1.77;;;0.30;;
68608;SDS011;55581;46.718;7.690;2022-09-17T13:59:56;1.42;;;0.20;;
68608;SDS011;55581;46.718;7.690;2022-09-17T14:02:31;1.70;;;0.32;;
68608;SDS011;55581;46.718;7.690;2022-09-17T14:05:40;1.98;;;0.20;;
68608;SDS011;55581;46.718;7.690;2022-09-17T14:10:56;1.27;;;0.30;;
68608;SDS011;55581;46.718;7.690;2022-09-17T14:13:27;1.75;;;0.55;;
68608;SDS011;55581;46.718;7.690;2022-09-17T14:16:43;1.40;;;0.20;;
68608;SDS011;55581;46.718;7.690;2022-09-17T14:19:17;1.55;;;0.20;;
68608;SDS011;55581;46.718;7.690;2022-09-17T14:27:12;1.58;;;0.30;;
68608;SDS011;55581;46.718;7.690;2022-09-17T14:32:41;1.88;;;0.30;;
68608;SDS011;55581;46.718;7.690;2022-09-17T14:35:15;1.20;;;0.20;;
68608;SDS011;55581;46.718;7.690;2022-09-17T14:37:54;1.02;;;0.20;;
68608;SDS011;55581;46.718;7.690;2022-09-17T14:40:27;1.65;;;0.20;;
68608;SDS011;55581;46.718;7.690;2022-09-17T14:42:58;2.08;;;0.20;;
68608;SDS011;55581;46.718;7.690;2022-09-17T14:45:28;1.67;;;0.35;;
68608;SDS011;55581;46.718;7.690;2022-09-17T14:48:18;1.00;;;0.20;;
68608;SDS011;55581;46.718;7.690;2022-09-17T14:51:38;1.75;;;0.20;;
68608;SDS011;55581;46.718;7.690;2022-09-17T14:53:41;1.50;;;0.20;;
68608;SDS011;55581;46.718;7.690;2022-09-17T14:56:12;2.22;;;0.43;;
68608;SDS011;55581;46.718;7.690;2022-09-17T14:58:42;3.13;;;0.20;;
68608;SDS011;55581;46.718;7.690;2022-09-17T15:01:28;1.87;;;0.33;;
68608;SDS011;55581;46.718;7.690;2022-09-17T15:06:41;1.58;;;0.30;;
68608;SDS011;55581;46.718;7.690;2022-09-17T15:09:14;2.55;;;0.20;;
68608;SDS011;55581;46.718;7.690;2022-09-17T15:11:46;2.00;;;0.40;;
68608;SDS011;55581;46.718;7.690;2022-09-17T15:14:16;1.27;;;0.30;;
68608;SDS011;55581;46.718;7.690;2022-09-17T15:16:49;1.70;;;0.22;;
68608;SDS011;55581;46.718;7.690;2022-09-17T15:19:19;3.03;;;0.32;;
68608;SDS011;55581;46.718;7.690;2022-09-17T15:21:48;1.63;;;0.20;;
68608;SDS011;55581;46.718;7.690;2022-09-17T15:26:48;2.23;;;0.30;;
68608;SDS011;55581;46.718;7.690;2022-09-17T15:29:16;2.25;;;0.28;;
68608;SDS011;55581;46.718;7.690;2022-09-17T15:31:46;1.73;;;0.40;;
68608;SDS011;55581;46.718;7.690;2022-09-17T15:34:12;1.50;;;0.30;;
68608;SDS011;55581;46.718;7.690;2022-09-17T15:36:41;1.80;;;0.20;;
68608;SDS011;55581;46.718;7.690;2022-09-17T15:39:31;1.75;;;0.32;;
68608;SDS011;55581;46.718;7.690;2022-09-17T15:42:15;2.15;;;0.30;;
68608;SDS011;55581;46.718;7.690;2022-09-17T15:44:43;1.55;;;0.28;;
68608;SDS011;55581;46.718;7.690;2022-09-17T15:50:13;2.95;;;0.63;;
68608;SDS011;55581;46.718;7.690;2022-09-17T15:52:40;3.10;;;0.80;;
68608;SDS011;55581;46.718;7.690;2022-09-17T15:57:56;1.98;;;0.52;;
68608;SDS011;55581;46.718;7.690;2022-09-17T16:00:25;1.93;;;0.33;;
68608;SDS011;55581;46.718;7.690;2022-09-17T16:02:51;2.63;;;0.40;;
68608;SDS011;55581;46.718;7.690;2022-09-17T16:07:45;1.90;;;0.20;;
68608;SDS011;55581;46.718;7.690;2022-09-17T16:10:11;3.63;;;0.60;;
68608;SDS011;55581;46.718;7.690;2022-09-17T16:12:39;1.93;;;0.20;;
68608;SDS011;55581;46.718;7.690;2022-09-17T16:15:05;1.65;;;0.20;;
68608;SDS011;55581;46.718;7.690;2022-09-17T16:20:19;3.33;;;0.40;;
68608;SDS011;55581;46.718;7.690;2022-09-17T16:22:49;3.95;;;0.75;;
68608;SDS011;55581;46.718;7.690;2022-09-17T16:25:16;2.47;;;0.40;;
68608;SDS011;55581;46.718;7.690;2022-09-17T16:30:15;3.78;;;0.40;;
68608;SDS011;55581;46.718;7.690;2022-09-17T16:32:43;2.22;;;0.30;;
68608;SDS011;55581;46.718;7.690;2022-09-17T16:35:11;1.70;;;0.28;;
68608;SDS011;55581;46.718;7.690;2022-09-17T16:37:39;1.90;;;0.40;;
68608;SDS011;55581;46.718;7.690;2022-09-17T16:40:05;2.90;;;0.55;;
68608;SDS011;55581;46.718;7.690;2022-09-17T16:42:31;1.40;;;0.20;;
68608;SDS011;55581;46.718;7.690;2022-09-17T16:44:56;3.22;;;0.68;;
68608;SDS011;55581;46.718;7.690;2022-09-17T16:47:26;2.08;;;0.30;;
68608;SDS011;55581;46.718;7.690;2022-09-17T16:49:52;2.38;;;0.30;;
68608;SDS011;55581;46.718;7.690;2022-09-17T16:52:17;5.13;;;1.03;;
68608;SDS011;55581;46.718;7.690;2022-09-17T16:54:44;2.72;;;0.50;;
68608;SDS011;55581;46.718;7.690;2022-09-17T16:57:10;2.23;;;0.60;;
68608;SDS011;55581;46.718;7.690;2022-09-17T16:59:35;3.00;;;0.40;;
68608;SDS011;55581;46.718;7.690;2022-09-17T17:02:01;1.48;;;0.20;;
68608;SDS011;55581;46.718;7.690;2022-09-17T17:04:26;1.93;;;0.20;;
68608;SDS011;55581;46.718;7.690;2022-09-17T17:06:52;3.90;;;0.30;;
68608;SDS011;55581;46.718;7.690;2022-09-17T17:09:17;1.83;;;0.27;;
68608;SDS011;55581;46.718;7.690;2022-09-17T17:11:42;1.90;;;0.30;;
68608;SDS011;55581;46.718;7.690;2022-09-17T17:14:08;1.83;;;0.40;;
68608;SDS011;55581;46.718;7.690;2022-09-17T17:16:34;2.07;;;0.30;;
68608;SDS011;55581;46.718;7.690;2022-09-17T17:18:59;2.08;;;0.20;;
68608;SDS011;55581;46.718;7.690;2022-09-17T17:21:24;2.07;;;0.27;;
68608;SDS011;55581;46.718;7.690;2022-09-17T17:23:50;3.33;;;0.30;;
68608;SDS011;55581;46.718;7.690;2022-09-17T17:26:16;3.70;;;0.50;;
68608;SDS011;55581;46.718;7.690;2022-09-17T17:28:42;4.70;;;0.40;;
68608;SDS011;55581;46.718;7.690;2022-09-17T17:31:08;4.32;;;0.60;;
68608;SDS011;55581;46.718;7.690;2022-09-17T17:33:35;2.80;;;0.70;;
68608;SDS011;55581;46.718;7.690;2022-09-17T17:36:03;3.37;;;0.30;;
68608;SDS011;55581;46.718;7.690;2022-09-17T17:38:32;2.08;;;0.40;;
68608;SDS011;55581;46.718;7.690;2022-09-17T17:41:04;4.27;;;0.30;;
68608;SDS011;55581;46.718;7.690;2022-09-17T17:43:33;2.22;;;0.38;;
68608;SDS011;55581;46.718;7.690;2022-09-17T17:45:59;2.72;;;0.50;;
68608;SDS011;55581;46.718;7.690;2022-09-17T17:48:24;3.23;;;0.37;;
68608;SDS011;55581;46.718;7.690;2022-09-17T17:50:52;2.35;;;0.30;;
68608;SDS011;55581;46.718;7.690;2022-09-17T17:53:24;2.95;;;0.30;;
68608;SDS011;55581;46.718;7.690;2022-09-17T17:55:54;2.13;;;0.30;;
68608;SDS011;55581;46.718;7.690;2022-09-17T17:58:24;2.83;;;0.20;;
68608;SDS011;55581;46.718;7.690;2022-09-17T18:00:49;2.10;;;0.33;;
68608;SDS011;55581;46.718;7.690;2022-09-17T18:03:15;1.95;;;0.30;;
68608;SDS011;55581;46.718;7.690;2022-09-17T18:05:41;1.37;;;0.20;;
68608;SDS011;55581;46.718;7.690;2022-09-17T18:08:06;2.60;;;0.40;;
68608;SDS011;55581;46.718;7.690;2022-09-17T18:10:31;2.78;;;0.65;;
68608;SDS011;55581;46.718;7.690;2022-09-17T18:12:57;1.20;;;0.30;;
68608;SDS011;55581;46.718;7.690;2022-09-17T18:15:22;1.97;;;0.30;;
68608;SDS011;55581;46.718;7.690;2022-09-17T18:17:48;2.25;;;0.30;;
68608;SDS011;55581;46.718;7.690;2022-09-17T18:20:15;3.43;;;0.50;;
68608;SDS011;55581;46.718;7.690;2022-09-17T18:22:43;1.23;;;0.20;;
68608;SDS011;55581;46.718;7.690;2022-09-17T18:25:08;1.73;;;0.27;;
68608;SDS011;55581;46.718;7.690;2022-09-17T18:27:34;3.00;;;0.60;;
68608;SDS011;55581;46.718;7.690;2022-09-17T18:29:59;2.23;;;0.40;;
68608;SDS011;55581;46.718;7.690;2022-09-17T18:32:24;1.80;;;0.30;;
68608;SDS011;55581;46.718;7.690;2022-09-17T18:34:52;3.45;;;0.25;;
68608;SDS011;55581;46.718;7.690;2022-09-17T18:39:20;1.73;;;0.50;;